Latest Weather Observations for Maroochydore

IDQ60901

Issued at 9:15 pm EST Friday 25 July 2014 (issued every 10 minutes, with the page automatically refreshed every 10 minutes)

About weather observations | Map of Brisbane area stations | Latest observations for Brisbane area | Other Formats
Station Details ID: 040861 Name: SUNSHINE COAST AIRPORT Lat: -26.60 Lon: 153.09 Height: 3.3 m
Data from the previous 72 hours. | See also: Recent months at Maroochydore
Date/Time
EST
Tmp

°C
App
Tmp
°C
Dew
Point
°C
Rel
Hum
%
Delta-T

°C
Wind Press
QNH
hPa
Press
MSL
hPa
Rain
since
9 am
mm
Dir
 
Spd
km/h
Gust
km/h
Spd
kts
Gust
kts
25/09:00pm 13.1 12.6 12.0 93 0.6 W 6 7 3 4 1027.0 1027.0 -
25/08:30pm 13.6 13.2 12.5 93 0.6 W 6 7 3 4 1026.8 - -
25/08:00pm 14.1 13.8 12.7 91 0.8 W 6 6 3 3 1026.5 - -
25/07:30pm 14.6 14.4 13.1 91 0.8 W 6 7 3 4 1026.1 - -
25/07:00pm 15.5 15.3 13.5 88 1.1 NW 7 9 4 5 1026.0 - -
25/06:30pm 16.7 16.4 14.3 86 1.4 N 9 13 5 7 1025.5 - -
25/06:00pm 16.9 16.9 14.2 84 1.5 N 7 11 4 6 1025.2 1025.2 -
25/05:30pm 18.2 17.7 14.9 81 1.9 NE 11 13 6 7 1024.9 - -
25/05:00pm 19.1 18.3 15.2 78 2.3 NE 13 17 7 9 1024.5 - -
25/04:30pm 20.3 19.6 15.5 74 2.8 ENE 13 17 7 9 1024.3 - -
25/04:00pm 20.9 19.8 15.4 71 3.3 NE 15 19 8 10 1024.1 - -
25/03:30pm 21.2 20.2 15.5 70 3.4 ENE 15 17 8 9 1024.1 - -
25/03:00pm 21.6 21.0 15.7 69 3.5 ENE 13 19 7 10 1024.0 1024.0 -
25/02:30pm 21.3 20.6 15.4 69 3.5 ENE 13 15 7 8 1024.0 - -
25/02:00pm 21.4 20.9 15.9 71 3.3 E 13 17 7 9 1024.2 - -
25/01:30pm 21.6 21.1 15.9 70 3.4 E 13 17 7 9 1024.4 - -
25/12:30pm - - - - - - - - - - - - -
25/12:00pm - - - - - - - - - - - - -
25/11:30am - - - - - - - - - - - - -
25/11:00am 21.0 20.1 14.9 68 3.6 ESE 13 15 7 8 1026.4 - 0.0
25/10:30am 20.6 20.1 14.9 70 3.3 E 11 15 6 8 1026.7 - 0.0
25/10:00am 19.8 19.6 14.8 73 2.9 E 9 13 5 7 1026.9 - 0.0
25/09:30am 18.4 18.7 15.1 81 1.9 S 7 9 4 5 1027.0 - 0.0
25/09:00am 16.0 16.4 14.7 92 0.7 W 6 7 3 4 1026.9 1026.9 0.0
25/08:30am 14.6 14.7 14.0 96 0.3 W 6 9 3 5 1026.8 - 0.0
25/08:00am 13.0 12.6 12.4 96 0.3 WSW 6 7 3 4 1026.7 - 0.0
25/07:30am 9.6 8.2 9.0 96 0.3 SW 6 7 3 4 1026.4 - 0.0
25/07:00am 9.0 7.4 8.2 95 0.4 W 6 9 3 5 1026.0 - 0.0
25/06:45am 8.8 7.0 8.0 95 0.4 WSW 7 9 4 5 1025.9 - 0.0
25/06:30am 8.6 7.3 7.8 95 0.4 W 4 9 2 5 1025.6 - 0.0
25/06:10am 8.7 7.8 7.9 95 0.4 W 2 7 1 4 1025.5 - 0.0
25/06:04am 9.1 7.6 8.3 95 0.4 W 6 7 3 4 1025.3 - 0.0
25/06:00am 8.9 7.3 8.1 95 0.4 W 6 7 3 4 1025.3 1025.3 0.0
25/05:30am 8.1 6.1 7.3 95 0.4 WSW 7 7 4 4 1024.9 - 0.0
25/05:19am 8.4 6.5 7.6 95 0.4 SW 7 7 4 4 1024.8 - 0.0
25/05:00am 8.8 7.2 8.0 95 0.4 SW 6 7 3 4 1024.5 - 0.0
25/04:37am 9.1 7.6 8.3 95 0.4 SW 6 7 3 4 1024.4 - 0.0
25/04:30am 9.7 8.1 8.9 95 0.4 SW 7 9 4 5 1024.3 - 0.0
25/04:28am 9.9 8.4 9.3 96 0.3 SW 7 9 4 5 1024.3 - 0.0
25/04:00am 9.3 7.6 8.5 95 0.4 W 7 7 4 4 1024.1 - 0.0
25/03:49am 9.7 8.1 8.9 95 0.4 W 7 11 4 6 1024.2 - 0.0
25/03:30am 10.1 8.3 9.3 95 0.4 W 9 9 5 5 1024.1 - 0.0
25/03:19am 9.7 7.8 8.9 95 0.4 W 9 9 5 5 1024.3 - 0.0
25/03:00am 10.0 8.1 9.2 95 0.4 WNW 9 11 5 6 1024.1 1024.1 0.0
25/02:30am 9.9 8.0 9.1 95 0.4 W 9 9 5 5 1024.1 - 0.0
25/02:00am 9.4 7.7 8.5 94 0.4 WSW 7 9 4 5 1024.0 - 0.0
25/01:35am 10.4 9.0 9.6 95 0.4 WSW 7 9 4 5 1024.3 - 0.0
25/01:32am 10.5 9.1 9.7 95 0.4 WSW 7 9 4 5 1024.3 - 0.0
25/01:30am 10.5 9.1 9.7 95 0.4 WSW 7 9 4 5 1024.3 - 0.0
25/01:00am 10.0 8.5 9.1 94 0.4 W 7 7 4 4 1024.5 - 0.0
25/12:59am 10.1 8.6 9.2 94 0.4 WSW 7 7 4 4 1024.5 - 0.0
25/12:58am 10.3 8.9 9.4 94 0.4 WSW 7 7 4 4 1024.5 - 0.0
25/12:30am 10.5 8.7 9.6 94 0.5 W 9 9 5 5 1024.5 - 0.0
25/12:00am 10.7 8.9 9.6 93 0.5 W 9 11 5 6 1024.4 1024.4 0.0
 
Date/Time
EST
Tmp

°C
App
Tmp
°C
Dew
Point
°C
Rel
Hum
%
Delta-T

°C
Wind Press
QNH
hPa
Press
MSL
hPa
Rain
since
9 am
mm
Dir
 
Spd
km/h
Gust
km/h
Spd
kts
Gust
kts
24/11:30pm 10.5 9.0 9.3 92 0.6 W 7 7 4 4 1024.5 - 0.0
24/11:18pm 10.8 9.4 9.6 92 0.6 W 7 9 4 5 1024.5 - 0.0
24/11:00pm 11.2 9.9 9.9 92 0.7 W 7 9 4 5 1024.5 - 0.0
24/10:30pm 12.0 11.1 10.7 92 0.7 WSW 6 7 3 4 1024.6 - 0.0
24/10:00pm 11.9 10.9 10.3 90 0.8 WSW 6 7 3 4 1024.7 - 0.0
24/09:30pm 13.2 12.6 11.6 90 0.9 WSW 6 7 3 4 1024.6 - 0.0
24/09:00pm 13.7 12.7 12.3 91 0.8 WSW 9 13 5 7 1024.5 1024.5 0.0
24/08:30pm 13.6 12.5 11.8 89 1.0 SW 9 11 5 6 1024.2 - 0.0
24/08:00pm 14.5 13.7 11.1 80 1.8 WNW 6 9 3 5 1023.9 - 0.0
24/07:30pm 17.6 15.9 13.7 78 2.2 NE 15 17 8 9 1023.4 - 0.0
24/07:00pm 17.9 16.3 13.8 77 2.3 NE 15 20 8 11 1023.2 - 0.0
24/06:30pm 18.4 17.1 13.7 74 2.7 NE 13 17 7 9 1022.8 - 0.0
24/06:00pm 18.1 16.5 12.8 71 3.0 ENE 13 17 7 9 1022.3 1022.3 0.0
24/05:30pm 18.5 16.9 12.9 70 3.1 ENE 13 17 7 9 1022.0 - 0.0
24/05:00pm 18.8 17.3 13.0 69 3.3 E 13 17 7 9 1021.7 - 0.0
24/04:30pm 19.5 17.8 12.5 64 3.9 E 13 17 7 9 1021.5 - 0.0
24/04:00pm 20.1 18.3 13.3 65 3.9 E 15 19 8 10 1021.3 - 0.0
24/03:30pm 20.2 18.5 13.6 66 3.8 E 15 17 8 9 1021.2 - 0.0
24/03:00pm 20.9 19.7 14.1 65 3.9 E 13 19 7 10 1021.3 1021.3 0.0
24/02:30pm 20.5 19.1 13.5 64 4.0 E 13 20 7 11 1021.3 - 0.0
24/02:00pm 21.0 19.0 13.9 64 4.1 ESE 17 20 9 11 1021.3 - 0.0
24/01:30pm 21.2 19.2 13.9 63 4.2 ESE 17 20 9 11 1021.4 - 0.0
24/01:00pm 21.1 19.2 13.0 60 4.6 SE 15 19 8 10 1021.5 - 0.0
24/12:30pm 21.1 19.5 12.8 59 4.7 ESE 13 17 7 9 1021.9 - 0.0
24/12:00pm 21.0 19.3 12.4 58 4.8 ESE 13 17 7 9 1022.0 1022.0 0.0
24/11:30am 21.3 19.9 13.5 61 4.5 ESE 13 17 7 9 1022.4 - 0.0
24/11:00am 20.8 19.0 12.2 58 4.8 ESE 13 17 7 9 1023.1 - 0.0
24/10:30am 20.5 18.7 12.0 58 4.7 SE 13 17 7 9 1023.3 - 0.0
24/10:00am 20.2 18.9 12.4 61 4.4 SSE 11 17 6 9 1023.1 - 0.0
24/09:30am 19.0 17.2 12.0 64 3.9 S 13 19 7 10 1022.8 - 0.0
24/09:00am 18.4 16.3 12.4 68 3.3 S 15 20 8 11 1022.9 1022.9 0.2
24/08:30am 17.3 16.1 12.8 75 2.5 S 11 15 6 8 1022.8 - 0.2
24/08:00am 14.5 14.0 12.7 89 1.0 WSW 7 9 4 5 1022.8 - 0.2
24/07:30am 12.1 11.2 11.2 94 0.5 WSW 7 9 4 5 1022.7 - 0.2
24/07:00am 10.2 8.9 9.1 93 0.5 WSW 6 7 3 4 1022.4 - 0.2
24/06:30am 10.0 8.4 8.8 92 0.6 WSW 7 9 4 5 1022.1 - 0.2
24/06:00am 10.5 9.2 9.3 92 0.6 WSW 6 7 3 4 1021.7 1021.7 0.2
24/05:30am 10.6 9.2 9.4 92 0.6 WSW 7 9 4 5 1021.5 - 0.2
24/05:00am 11.1 9.4 9.7 91 0.7 WSW 9 9 5 5 1021.2 - 0.2
24/04:30am 12.0 10.5 10.7 92 0.7 SW 9 11 5 6 1020.9 - 0.2
24/04:00am 12.0 10.5 10.7 92 0.7 WSW 9 11 5 6 1020.9 - 0.2
24/03:30am 12.5 11.2 11.4 93 0.6 SW 9 11 5 6 1021.2 - 0.2
24/03:00am 12.2 10.8 10.8 91 0.7 WSW 9 11 5 6 1021.3 1021.3 0.2
24/02:30am 13.0 11.8 11.7 92 0.7 SW 9 9 5 5 1021.3 - 0.2
24/02:00am 13.2 12.1 11.9 92 0.7 WSW 9 11 5 6 1021.4 - 0.2
24/01:30am 13.4 12.3 12.1 92 0.7 SW 9 13 5 7 1021.5 - 0.2
24/01:00am 13.4 12.3 12.1 92 0.7 WSW 9 11 5 6 1021.5 - 0.2
24/12:30am 12.6 11.8 11.0 90 0.8 WSW 6 7 3 4 1021.3 - 0.2
24/12:00am 12.7 11.6 10.8 88 1.0 WSW 7 9 4 5 1021.5 1021.5 0.2
 
Date/Time
EST
Tmp

°C
App
Tmp
°C
Dew
Point
°C
Rel
Hum
%
Delta-T

°C
Wind Press
QNH
hPa
Press
MSL
hPa
Rain
since
9 am
mm
Dir
 
Spd
km/h
Gust
km/h
Spd
kts
Gust
kts
23/11:30pm 13.3 12.0 11.4 88 1.0 SSW 9 11 5 6 1021.6 - 0.2
23/11:00pm 13.5 12.2 11.2 86 1.2 WSW 9 11 5 6 1022.0 - 0.2
23/10:30pm 13.8 13.0 11.7 87 1.1 WSW 7 9 4 5 1022.3 - 0.2
23/10:00pm 13.6 12.8 11.1 85 1.3 SSW 6 9 3 5 1022.1 - 0.2
23/09:30pm 13.7 12.9 11.2 85 1.3 SW 6 9 3 5 1022.1 - 0.2
23/09:00pm 13.9 13.1 11.6 86 1.2 SW 7 13 4 7 1022.0 1022.0 0.2
23/08:30pm 13.5 12.2 11.2 86 1.2 WSW 9 15 5 8 1021.7 - 0.2
23/08:00pm 13.8 12.6 11.5 86 1.2 SW 9 11 5 6 1021.6 - 0.2
23/07:30pm 13.8 12.5 11.1 84 1.4 SW 9 11 5 6 1021.5 - 0.2
23/07:00pm 14.7 13.8 11.5 81 1.7 SSW 7 11 4 6 1021.3 - 0.2
23/06:30pm 14.5 13.2 11.1 80 1.8 SSW 9 11 5 6 1021.2 - 0.2
23/06:00pm 15.8 14.5 11.4 75 2.4 SSE 9 13 5 7 1021.0 1021.0 0.2
23/05:30pm 16.6 14.7 11.7 73 2.7 SE 13 17 7 9 1020.8 - 0.2
23/05:00pm 16.9 14.9 11.4 70 3.0 SSE 13 17 7 9 1020.8 - 0.2
23/04:30pm 17.9 15.1 11.5 66 3.5 SE 17 22 9 12 1020.6 - 0.2
23/04:00pm 18.6 15.9 11.7 64 3.8 SE 17 24 9 13 1020.4 - 0.2
23/03:30pm 19.0 15.7 11.6 62 4.1 SE 20 26 11 14 1020.5 - 0.2
23/03:00pm 19.6 16.0 10.6 56 4.9 SE 20 28 11 15 1020.5 1020.5 0.2
23/02:30pm 19.7 15.6 10.1 54 5.2 SE 22 26 12 14 1020.4 - 0.2
23/02:00pm 20.3 17.0 11.5 57 4.9 SE 20 28 11 15 1020.4 - 0.2
23/01:30pm 19.9 15.7 11.1 57 4.8 SE 24 32 13 17 1020.6 - 0.2
23/01:00pm 19.7 15.3 10.4 55 5.0 SE 24 30 13 16 1020.5 - 0.2
23/12:30pm 19.9 15.4 10.0 53 5.3 SE 24 28 13 15 1020.7 - 0.2
23/12:00pm 20.1 16.0 11.3 57 4.8 SE 24 32 13 17 1021.4 1021.4 0.2
23/11:30am 20.2 17.3 10.9 55 5.1 SSE 17 24 9 13 1022.0 - 0.2
23/11:00am 19.3 15.6 10.3 56 4.8 SSE 20 26 11 14 1022.4 - 0.2
23/10:30am 18.8 14.9 10.9 60 4.3 S 22 30 12 16 1022.9 - 0.2
23/10:00am 18.0 14.0 10.6 62 4.0 S 22 30 12 16 1023.2 - 0.0
23/09:30am 17.5 13.2 10.9 65 3.5 S 24 32 13 17 1023.1 - 0.0
23/09:00am 16.8 13.9 11.1 69 3.1 S 17 24 9 13 1023.1 1023.1 0.8
23/08:30am 15.9 12.5 10.4 70 2.9 S 19 24 10 13 1022.8 - 0.8
23/08:00am 14.8 12.2 10.8 77 2.1 SSW 15 20 8 11 1022.4 - 0.8
23/07:30am 12.7 10.3 10.2 85 1.3 SW 13 15 7 8 1022.3 - 0.8
23/07:00am 11.5 8.9 9.4 87 1.1 SW 13 17 7 9 1021.9 - 0.8
23/06:30am 11.0 8.3 9.1 88 0.9 SW 13 15 7 8 1021.5 - 0.8
23/06:00am 10.7 8.0 9.0 89 0.8 WSW 13 15 7 8 1021.0 1021.0 0.8
23/05:30am 11.3 9.0 8.9 85 1.2 SW 11 15 6 8 1020.8 - 0.8
23/05:00am 12.1 9.4 9.1 82 1.5 SW 13 17 7 9 1020.4 - 0.8
23/04:30am 12.9 9.7 9.9 82 1.5 SSW 17 26 9 14 1020.1 - 0.8
23/04:00am 12.9 9.8 10.3 84 1.3 SSW 17 22 9 12 1019.8 - 0.8
23/03:30am 11.6 9.6 10.0 90 0.8 SW 11 17 6 9 1020.2 - 0.8
23/03:00am 11.8 9.9 10.5 92 0.7 SW 11 17 6 9 1020.3 1020.3 0.8
23/02:30am 12.0 9.8 10.9 93 0.6 SW 13 17 7 9 1020.5 - 0.8
23/02:00am 11.7 9.8 10.6 93 0.6 SW 11 13 6 7 1020.5 - 0.8
23/01:30am 11.9 10.0 10.6 92 0.7 SW 11 15 6 8 1020.7 - 0.8
23/01:00am 12.0 9.8 10.9 93 0.6 SW 13 15 7 8 1020.7 - 0.8
23/12:30am 11.8 9.6 10.7 93 0.6 SW 13 15 7 8 1020.9 - 0.8
23/12:00am 11.2 9.6 10.1 93 0.6 SW 9 13 5 7 1021.0 1021.0 0.8
 
Date/Time
EST
Tmp

°C
App
Tmp
°C
Dew
Point
°C
Rel
Hum
%
Delta-T

°C
Wind Press
QNH
hPa
Press
MSL
hPa
Rain
since
9 am
mm
Dir
 
Spd
km/h
Gust
km/h
Spd
kts
Gust
kts
22/11:30pm 11.5 10.3 10.2 92 0.7 SW 7 9 4 5 1021.2 - 0.8
22/11:00pm 12.0 10.6 10.9 93 0.6 SW 9 13 5 7 1021.2 - 0.8
22/10:30pm 12.3 10.2 11.2 93 0.6 SW 13 17 7 9 1021.2 - 0.8
22/10:00pm 12.5 10.8 11.2 92 0.7 WSW 11 15 6 8 1021.6 - 0.6
22/09:30pm 13.0 10.7 11.9 93 0.6 SW 15 17 8 9 1021.6 - 0.6

Latest Capital City Observations: Canberra | Sydney | Melbourne | Brisbane | Adelaide | Perth | Hobart | Darwin

Other Formats:

Comma delimited format used in spreadsheet applications
http://www.bom.gov.au/fwo/IDQ60901/IDQ60901.94569.axf

JavaScript Object Notation format (JSON) in row-major order
http://www.bom.gov.au/fwo/IDQ60901/IDQ60901.94569.json